createdAt,value
2022-09-10T12:02:43.402Z,0.35
2022-09-10T12:05:30.035Z,0.40
2022-09-10T12:07:59.943Z,0.40
2022-09-10T12:10:59.779Z,0.45
2022-09-10T12:13:26.975Z,0.20
2022-09-10T12:15:58.314Z,0.50
2022-09-10T12:18:45.158Z,0.50
2022-09-10T12:21:36.085Z,0.70
2022-09-10T12:24:20.890Z,1.20
2022-09-10T12:26:47.865Z,0.35
2022-09-10T12:29:43.315Z,0.70
2022-09-10T12:32:19.394Z,0.22
2022-09-10T12:34:49.868Z,0.50
2022-09-10T12:37:28.221Z,0.32
2022-09-10T12:40:29.277Z,0.40
2022-09-10T12:43:20.268Z,0.20
2022-09-10T12:46:16.460Z,0.22
2022-09-10T12:48:44.988Z,0.30
2022-09-10T12:51:20.983Z,0.43
2022-09-10T12:53:59.106Z,0.22
2022-09-10T12:56:47.949Z,0.30
2022-09-10T12:59:24.391Z,0.43
2022-09-10T13:01:52.194Z,0.30
2022-09-10T13:04:35.972Z,0.60
2022-09-10T13:07:19.546Z,0.40
2022-09-10T13:09:56.119Z,0.55
2022-09-10T13:12:25.872Z,0.50
2022-09-10T13:15:00.395Z,0.70
2022-09-10T13:17:47.172Z,0.55
2022-09-10T13:20:20.106Z,0.40
2022-09-10T13:23:06.840Z,0.40
2022-09-10T13:25:37.078Z,0.20
2022-09-10T13:28:33.737Z,0.45
2022-09-10T13:31:09.233Z,0.30
2022-09-10T13:36:37.482Z,0.25
2022-09-10T13:39:07.903Z,0.40
2022-09-10T13:42:08.907Z,0.43
2022-09-10T13:45:08.157Z,0.30
2022-09-10T13:47:46.230Z,0.20
2022-09-10T13:50:21.131Z,0.30
2022-09-10T13:52:52.548Z,0.35
2022-09-10T13:55:23.324Z,0.30
2022-09-10T13:57:54.816Z,0.30
2022-09-10T14:00:27.794Z,0.28
2022-09-10T14:02:58.692Z,0.60
2022-09-10T14:05:44.315Z,0.20
2022-09-10T14:08:20.435Z,0.20
2022-09-10T14:10:50.336Z,0.32
2022-09-10T14:13:22.475Z,0.30
2022-09-10T14:15:52.275Z,0.30
2022-09-10T14:18:20.689Z,0.30
2022-09-10T14:20:48.253Z,0.20
2022-09-10T14:23:16.752Z,0.40
2022-09-10T14:25:45.404Z,0.28
2022-09-10T14:28:25.885Z,0.20
2022-09-10T14:31:13.860Z,0.30
2022-09-10T14:33:40.913Z,0.25
2022-09-10T14:36:28.771Z,0.25
2022-09-10T14:39:02.348Z,0.50
2022-09-10T14:41:32.044Z,0.38
2022-09-10T14:44:24.085Z,0.32
2022-09-10T14:47:10.700Z,0.20
2022-09-10T14:49:41.381Z,0.22
2022-09-10T14:52:11.231Z,0.30
2022-09-10T14:54:38.411Z,0.20
2022-09-10T14:57:10.174Z,0.20
2022-09-10T14:59:38.928Z,0.30
2022-09-10T15:02:22.951Z,0.30
2022-09-10T15:04:50.439Z,0.57
2022-09-10T15:07:17.331Z,0.40
2022-09-10T15:09:44.199Z,0.20
2022-09-10T15:12:28.755Z,0.17
2022-09-10T15:14:57.211Z,0.15
2022-09-10T15:17:24.100Z,0.20
2022-09-10T15:19:52.203Z,0.40
2022-09-10T15:22:27.643Z,0.52
2022-09-10T15:27:38.603Z,0.35
2022-09-10T15:30:06.559Z,0.50
2022-09-10T15:32:33.507Z,0.40
2022-09-10T15:35:01.189Z,0.20
2022-09-10T15:37:28.170Z,0.15
2022-09-10T15:39:56.717Z,0.22
2022-09-10T15:42:23.695Z,0.63
2022-09-10T15:44:50.716Z,0.35
2022-09-10T15:47:17.576Z,0.40
2022-09-10T15:49:44.431Z,0.40
2022-09-10T15:52:11.279Z,0.50
2022-09-10T15:54:38.117Z,0.50
2022-09-10T15:57:05.135Z,0.60
2022-09-10T15:59:31.959Z,0.35
2022-09-10T16:01:58.896Z,0.55
2022-09-10T16:04:26.095Z,0.30
2022-09-10T16:06:52.961Z,0.30
2022-09-10T16:09:19.823Z,0.40
2022-09-10T16:11:46.740Z,0.20
2022-09-10T16:14:16.112Z,0.30
2022-09-10T16:16:43.271Z,0.40
2022-09-10T16:19:12.997Z,0.20
2022-09-10T16:21:40.029Z,0.40
2022-09-10T16:24:07.776Z,0.28
2022-09-10T16:26:42.272Z,0.20
2022-09-10T16:29:17.420Z,0.38
2022-09-10T16:31:48.197Z,0.30
2022-09-10T16:34:20.079Z,0.40
2022-09-10T16:36:51.416Z,0.50
2022-09-10T16:39:19.440Z,0.57
2022-09-10T16:41:48.949Z,0.32
2022-09-10T16:44:17.545Z,0.25
2022-09-10T16:46:45.149Z,0.10
2022-09-10T16:49:14.635Z,0.20
2022-09-10T16:51:43.120Z,0.40
2022-09-10T16:54:13.943Z,0.10
2022-09-10T16:56:43.240Z,0.28
2022-09-10T16:59:16.136Z,0.30
2022-09-10T17:01:44.306Z,0.30
2022-09-10T17:04:19.731Z,0.35
2022-09-10T17:06:48.679Z,0.55
2022-09-10T17:09:15.725Z,0.45
2022-09-10T17:11:42.616Z,0.60
2022-09-10T17:14:10.425Z,0.50
2022-09-10T17:16:42.113Z,0.40
2022-09-10T17:19:23.696Z,0.50
2022-09-10T17:21:55.215Z,0.32
2022-09-10T17:24:24.658Z,0.30
2022-09-10T17:26:52.433Z,0.22
2022-09-10T17:29:22.347Z,0.20
2022-09-10T17:31:52.120Z,0.30
2022-09-10T17:34:21.533Z,0.25
2022-09-10T17:36:48.902Z,0.10
2022-09-10T17:39:19.028Z,0.13
2022-09-10T17:41:46.256Z,0.10
2022-09-10T17:44:15.892Z,0.20
2022-09-10T17:46:43.090Z,0.10
2022-09-10T17:49:13.364Z,0.25
2022-09-10T17:51:40.312Z,0.50
2022-09-10T17:54:08.359Z,0.57
2022-09-10T17:56:35.849Z,0.30
2022-09-10T17:59:04.468Z,0.30
2022-09-10T18:01:34.267Z,0.50
2022-09-10T18:04:01.352Z,0.47
2022-09-10T18:06:29.338Z,0.38
2022-09-10T18:09:00.617Z,0.40
2022-09-10T18:11:30.225Z,0.30
2022-09-10T18:13:58.482Z,0.30
2022-09-10T18:16:28.091Z,0.13
2022-09-10T18:18:59.388Z,0.40
2022-09-10T18:21:32.175Z,0.57
2022-09-10T18:24:07.024Z,0.40
2022-09-10T18:26:39.533Z,0.73
2022-09-10T18:29:17.784Z,0.80
2022-09-10T18:31:47.875Z,0.70
2022-09-10T18:34:22.213Z,0.47
2022-09-10T18:36:54.598Z,0.57
2022-09-10T18:39:22.550Z,0.30
2022-09-10T18:41:49.496Z,0.40
2022-09-10T18:44:21.923Z,0.20
2022-09-10T18:46:50.599Z,0.30
2022-09-10T18:49:22.556Z,0.30
2022-09-10T18:51:50.215Z,0.28
2022-09-10T18:54:18.116Z,0.35
2022-09-10T18:56:49.440Z,0.20
2022-09-10T18:59:20.265Z,0.13
2022-09-10T19:01:48.940Z,0.20
2022-09-10T19:04:21.822Z,0.30
2022-09-10T19:06:49.752Z,0.35
2022-09-10T19:09:19.548Z,0.20
2022-09-10T19:11:49.261Z,0.20
2022-09-10T19:14:26.433Z,0.30
2022-09-10T19:16:55.005Z,0.17
2022-09-10T19:19:24.132Z,0.22
2022-09-10T19:21:53.736Z,0.40
2022-09-10T19:24:32.928Z,0.30
2022-09-10T19:27:05.075Z,0.20
2022-09-10T19:29:31.909Z,0.10
2022-09-10T19:31:58.831Z,0.13
2022-09-10T19:34:26.994Z,0.15
2022-09-10T19:36:54.103Z,0.10
2022-09-10T19:39:21.112Z,0.30
2022-09-10T19:41:48.974Z,0.20
2022-09-10T19:44:17.663Z,0.30
2022-09-10T19:46:45.428Z,0.45
2022-09-10T19:49:12.969Z,0.30
2022-09-10T19:51:41.724Z,0.57
2022-09-10T19:54:10.172Z,0.35
2022-09-10T19:56:39.946Z,0.50
2022-09-10T19:59:10.045Z,0.65
2022-09-10T20:01:40.043Z,0.55
2022-09-10T20:04:09.761Z,0.50
2022-09-10T20:06:38.138Z,0.70
2022-09-10T20:09:06.745Z,0.40
2022-09-10T20:11:35.273Z,0.60
2022-09-10T20:14:12.916Z,0.65
2022-09-10T20:16:42.975Z,0.50
2022-09-10T20:19:11.755Z,0.43
2022-09-10T20:21:38.677Z,0.50
2022-09-10T20:24:09.051Z,1.10
2022-09-10T20:26:38.297Z,1.35
2022-09-10T20:29:07.815Z,1.50
2022-09-10T20:31:36.184Z,1.17
2022-09-10T20:34:05.959Z,1.13
2022-09-10T20:36:35.040Z,1.38
2022-09-10T20:39:02.407Z,1.20
2022-09-10T20:41:32.939Z,0.70
2022-09-10T20:44:01.995Z,0.93
2022-09-10T20:46:30.591Z,0.70
2022-09-10T20:49:03.301Z,0.70
2022-09-10T20:51:38.851Z,0.50
2022-09-10T20:54:07.904Z,0.80
2022-09-10T20:56:34.820Z,0.70
2022-09-10T20:59:02.079Z,1.02
2022-09-10T21:01:33.493Z,0.45
2022-09-10T21:04:01.500Z,0.50
2022-09-10T21:06:31.342Z,0.70
2022-09-10T21:08:58.818Z,1.02
2022-09-10T21:11:28.690Z,0.82
2022-09-10T21:13:58.189Z,1.10
2022-09-10T21:16:28.109Z,1.00
2022-09-10T21:18:57.604Z,0.73
2022-09-10T21:21:26.918Z,0.70
2022-09-10T21:24:02.201Z,1.00
2022-09-10T21:26:32.333Z,0.90
2022-09-10T21:29:03.064Z,0.90
2022-09-10T21:31:30.974Z,0.98
2022-09-10T21:34:02.782Z,2.60
2022-09-10T21:36:31.733Z,2.58
2022-09-10T21:39:00.777Z,1.98
2022-09-10T21:41:31.878Z,1.40
2022-09-10T21:44:00.832Z,1.77
2022-09-10T21:46:29.544Z,1.25
2022-09-10T21:48:56.818Z,1.00
2022-09-10T21:51:24.275Z,1.00
2022-09-10T21:53:57.133Z,1.00
2022-09-10T21:56:26.270Z,0.90
2022-09-10T21:58:53.910Z,1.00
2022-09-10T22:01:27.499Z,0.80
2022-09-10T22:03:57.769Z,1.10
2022-09-10T22:06:30.026Z,0.73
2022-09-10T22:09:00.356Z,0.68
2022-09-10T22:11:36.865Z,0.80
2022-09-10T22:14:12.125Z,1.00
2022-09-10T22:16:39.653Z,0.80
2022-09-10T22:19:09.503Z,0.95
2022-09-10T22:21:38.367Z,0.65
2022-09-10T22:24:16.692Z,0.60
2022-09-10T22:26:44.574Z,0.60
2022-09-10T22:29:12.698Z,0.50
2022-09-10T22:31:40.039Z,0.50
2022-09-10T22:34:10.025Z,0.88
2022-09-10T22:36:38.921Z,0.70
2022-09-10T22:39:12.082Z,1.10
2022-09-10T22:41:39.869Z,0.50
2022-09-10T22:44:07.664Z,0.73
2022-09-10T22:46:36.202Z,0.88
2022-09-10T22:49:03.905Z,0.68
2022-09-10T22:51:36.568Z,0.63
2022-09-10T22:54:05.127Z,0.50
2022-09-10T22:56:32.170Z,0.68
2022-09-10T22:59:00.297Z,0.40
2022-09-10T23:01:35.605Z,0.47
2022-09-10T23:04:03.400Z,0.30
2022-09-10T23:06:32.226Z,0.40
2022-09-10T23:09:08.702Z,0.40
2022-09-10T23:11:37.297Z,0.30
2022-09-10T23:14:11.360Z,0.30
2022-09-10T23:16:40.672Z,0.40
2022-09-10T23:19:14.171Z,0.30
2022-09-10T23:21:44.282Z,0.30
2022-09-10T23:24:14.194Z,0.30
2022-09-10T23:26:42.052Z,0.30
2022-09-10T23:29:09.297Z,0.40
2022-09-10T23:31:38.326Z,0.40
2022-09-10T23:34:13.867Z,0.30
2022-09-10T23:36:43.907Z,0.50
2022-09-10T23:39:16.292Z,0.43
2022-09-10T23:41:43.506Z,0.28
2022-09-10T23:44:10.425Z,0.20
2022-09-10T23:46:37.826Z,0.40
2022-09-10T23:49:05.443Z,0.40
2022-09-10T23:51:32.406Z,0.50
2022-09-10T23:53:59.484Z,0.40
2022-09-10T23:56:28.527Z,0.60
2022-09-10T23:58:59.411Z,0.47
